Time;durP1;ratioP1;P1;durP2;ratioP2;P2;SDS_P1;SDS_P2;PMS_P1;PMS_P2;Temp;Humidity;BMP_temperature;BMP_pressure;BME280_temperature;BME280_humidity;BME280_pressure;Samples;Min_cycle;Max_cycle;Signal;HPM_P1;HPM_P2
2023/06/20 00:01:13;;;;;;;76.50;54.75;;;23.00;70.00;;;;;;4962429;28;95889;-81
2023/06/20 00:03:38;;;;;;;76.32;54.47;;;22.90;70.00;;;;;;4950611;28;95226;-82
2023/06/20 00:06:04;;;;;;;77.82;55.25;;;23.00;70.30;;;;;;4961406;28;95635;-81
2023/06/20 00:08:29;;;;;;;77.47;54.75;;;22.90;70.30;;;;;;4956279;28;99139;-82
2023/06/20 00:10:55;;;;;;;77.20;54.90;;;22.90;70.20;;;;;;4961587;28;94490;-82
2023/06/20 00:13:20;;;;;;;76.97;54.67;;;22.90;69.80;;;;;;4957246;28;95838;-82
2023/06/20 00:15:46;;;;;;;76.68;54.70;;;22.90;70.00;;;;;;4959234;28;98891;-81
2023/06/20 00:18:12;;;;;;;76.82;54.65;;;22.90;70.10;;;;;;4962268;28;98354;-82
2023/06/20 00:20:37;;;;;;;77.05;54.60;;;22.90;70.50;;;;;;4957518;28;94617;-82
2023/06/20 00:23:03;;;;;;;77.78;54.70;;;22.80;70.30;;;;;;4957084;28;95188;-81
2023/06/20 00:25:29;;;;;;;77.90;55.10;;;22.80;70.20;;;;;;4958283;28;97795;-82
2023/06/20 00:27:54;;;;;;;77.63;54.85;;;22.80;70.70;;;;;;4960338;28;96528;-82
2023/06/20 00:30:20;;;;;;;77.22;54.97;;;22.80;70.40;;;;;;4961032;28;96216;-81
2023/06/20 00:32:45;;;;;;;76.72;54.60;;;22.80;70.30;;;;;;4957637;28;96613;-81
2023/06/20 00:35:11;;;;;;;76.93;54.88;;;22.80;70.60;;;;;;4960372;28;95079;-82
2023/06/20 00:37:38;;;;;;;78.03;55.05;;;22.80;70.50;;;;;;4963906;28;97486;-81
2023/06/20 00:40:07;;;;;;;77.25;55.05;;;22.80;70.80;;;;;;4965460;28;94751;-82
2023/06/20 00:42:33;;;;;;;76.45;54.38;;;22.70;70.70;;;;;;4967157;28;93606;-82
2023/06/20 00:44:58;;;;;;;76.80;54.83;;;22.80;70.50;;;;;;4958162;28;99308;-82
2023/06/20 00:47:24;;;;;;;78.22;55.03;;;22.70;70.40;;;;;;4967030;28;98783;-81
2023/06/20 00:49:51;;;;;;;77.15;55.22;;;22.70;70.90;;;;;;4964535;28;95645;-82
2023/06/20 00:52:21;;;;;;;77.13;54.47;;;22.70;71.40;;;;;;4966194;28;94775;-81
2023/06/20 00:54:48;;;;;;;77.20;54.97;;;22.70;70.70;;;;;;4957994;28;99181;-82
2023/06/20 00:57:16;;;;;;;77.22;54.80;;;22.70;71.70;;;;;;4953567;28;95391;-81
2023/06/20 00:59:44;;;;;;;77.68;54.85;;;22.70;71.40;;;;;;4961450;28;94855;-82
2023/06/20 01:02:10;;;;;;;76.40;54.65;;;22.70;72.20;;;;;;4965177;28;95049;-82
2023/06/20 01:04:39;;;;;;;77.05;54.85;;;22.70;72.20;;;;;;4964807;28;98695;-82
2023/06/20 01:07:31;;;;;;;76.43;54.55;;;22.70;72.10;;;;;;4955913;28;94648;-82
2023/06/20 01:10:11;;;;;;;77.68;54.75;;;22.70;71.70;;;;;;4960171;28;95514;-82
2023/06/20 01:12:59;;;;;;;76.40;54.88;;;22.70;71.10;;;;;;4973167;28;95558;-82
2023/06/20 01:15:33;;;;;;;77.18;54.90;;;22.70;71.30;;;;;;4957047;28;99680;-82
2023/06/20 01:18:09;;;;;;;77.40;54.97;;;22.60;71.20;;;;;;4961079;28;98913;-81
2023/06/20 01:20:43;;;;;;;76.50;54.60;;;22.60;71.80;;;;;;4969105;28;94900;-83
2023/06/20 01:23:29;;;;;;;77.28;54.90;;;22.60;71.10;;;;;;4965336;28;95303;-81
2023/06/20 01:26:17;;;;;;;77.45;54.80;;;22.60;71.30;;;;;;4970864;28;95342;-82
2023/06/20 01:28:59;;;;;;;76.68;54.95;;;22.60;71.10;;;;;;4961647;28;98909;-82
2023/06/20 01:31:30;;;;;;;76.90;54.92;;;22.50;71.10;;;;;;4963382;28;95045;-81
2023/06/20 01:33:58;;;;;;;77.22;54.63;;;22.50;71.20;;;;;;4958239;28;93893;-81
2023/06/20 01:36:32;;;;;;;75.95;54.30;;;22.50;71.30;;;;;;4967709;28;98152;-81
2023/06/20 01:39:02;;;;;;;76.93;54.88;;;22.50;71.50;;;;;;4966840;28;99385;-81
2023/06/20 01:41:31;;;;;;;78.07;54.95;;;22.40;71.20;;;;;;4969066;28;96617;-81
2023/06/20 01:44:00;;;;;;;76.78;54.67;;;22.40;71.40;;;;;;4960264;28;94464;-82
2023/06/20 01:46:26;;;;;;;76.57;54.70;;;22.40;71.80;;;;;;4960347;28;98765;-81
2023/06/20 01:48:53;;;;;;;77.57;55.03;;;22.40;71.60;;;;;;4959963;28;95020;-81
2023/06/20 01:51:20;;;;;;;77.72;55.20;;;22.40;72.40;;;;;;4958827;28;94927;-81
2023/06/20 01:53:47;;;;;;;76.47;54.70;;;22.40;71.90;;;;;;4960960;28;94751;-82
2023/06/20 01:56:14;;;;;;;77.20;54.85;;;22.40;71.80;;;;;;4974060;28;98117;-81
2023/06/20 01:58:40;;;;;;;76.15;54.47;;;22.30;72.20;;;;;;4962479;28;97960;-82
2023/06/20 02:01:07;;;;;;;77.35;54.83;;;22.30;71.90;;;;;;4968001;28;95343;-81
2023/06/20 02:03:34;;;;;;;77.03;54.80;;;22.30;72.20;;;;;;4958200;28;94727;-82
2023/06/20 02:06:01;;;;;;;77.25;54.75;;;22.30;72.60;;;;;;4960599;28;99249;-81
2023/06/20 02:08:30;;;;;;;78.78;54.70;;;22.30;72.00;;;;;;4958441;28;99406;-81
2023/06/20 02:10:57;;;;;;;77.15;55.00;;;22.20;71.90;;;;;;4964955;28;96389;-82
2023/06/20 02:13:23;;;;;;;76.75;54.47;;;22.20;72.20;;;;;;4964735;28;95235;-81
2023/06/20 02:15:53;;;;;;;76.45;54.38;;;22.20;72.50;;;;;;4966248;28;99071;-81
2023/06/20 02:18:20;;;;;;;76.47;54.55;;;22.10;72.30;;;;;;4960625;28;98693;-81
2023/06/20 02:20:51;;;;;;;77.07;54.80;;;22.10;72.80;;;;;;4958968;28;94825;-82
2023/06/20 02:23:27;;;;;;;77.05;55.15;;;22.10;72.80;;;;;;4981543;28;93807;-81
2023/06/20 02:25:59;;;;;;;76.15;54.28;;;22.10;72.80;;;;;;4956786;28;94831;-81
2023/06/20 02:28:27;;;;;;;76.13;54.42;;;22.10;72.60;;;;;;4962985;28;98529;-82
2023/06/20 02:30:54;;;;;;;77.80;54.65;;;22.00;72.40;;;;;;4963144;28;96392;-81
2023/06/20 02:33:22;;;;;;;77.93;54.63;;;22.00;74.00;;;;;;4963802;28;95225;-81
2023/06/20 02:35:50;;;;;;;76.68;54.75;;;22.00;73.40;;;;;;4962430;28;95260;-81
2023/06/20 02:38:16;;;;;;;76.97;54.95;;;22.00;73.20;;;;;;4967257;28;94690;-81
2023/06/20 02:40:41;;;;;;;77.20;54.95;;;22.00;72.90;;;;;;4961356;28;94783;-81
2023/06/20 02:43:08;;;;;;;76.60;54.67;;;22.00;73.60;;;;;;4953433;28;95340;-82
2023/06/20 02:45:35;;;;;;;76.95;54.78;;;22.00;73.80;;;;;;4963883;28;95842;-81
2023/06/20 02:48:26;;;;;;;77.10;54.55;;;21.90;74.00;;;;;;4965763;28;95195;-81
2023/06/20 02:50:51;;;;;;;;;;;21.90;73.60;;;;;;4961767;28;94640;-81
2023/06/20 02:53:42;;;;;;;77.47;54.75;;;21.90;73.70;;;;;;4958185;28;94865;-81
2023/06/20 02:56:14;;;;;;;77.00;54.58;;;21.90;73.10;;;;;;4962525;28;95976;-81
2023/06/20 02:58:45;;;;;;;77.00;54.47;;;21.90;73.60;;;;;;4966160;28;98751;-82
2023/06/20 03:01:17;;;;;;;76.00;54.53;;;21.90;72.70;;;;;;4959154;28;94572;-81
2023/06/20 03:03:45;;;;;;;77.00;54.78;;;21.80;73.40;;;;;;4963811;28;94655;-81
2023/06/20 03:06:14;;;;;;;76.60;54.42;;;21.80;73.40;;;;;;4970704;28;95214;-82
2023/06/20 03:08:43;;;;;;;76.85;54.63;;;21.80;73.80;;;;;;4964545;28;98000;-82
2023/06/20 03:11:09;;;;;;;76.60;54.65;;;21.80;73.70;;;;;;4962911;28;95871;-81
2023/06/20 03:13:35;;;;;;;76.70;54.88;;;21.80;74.20;;;;;;4962486;28;93943;-82
2023/06/20 03:16:01;;;;;;;75.80;54.53;;;21.80;73.10;;;;;;4956886;28;95339;-81
2023/06/20 03:18:29;;;;;;;75.82;54.58;;;21.70;73.60;;;;;;4981354;28;96786;-81
2023/06/20 03:20:55;;;;;;;78.07;54.67;;;21.70;74.30;;;;;;4966016;28;96085;-81
2023/06/20 03:23:21;;;;;;;77.03;55.20;;;21.70;73.30;;;;;;4962359;28;94720;-81
2023/06/20 03:25:46;;;;;;;75.72;54.55;;;21.70;74.50;;;;;;4958768;28;94809;-80
2023/06/20 03:28:12;;;;;;;76.50;55.03;;;21.70;74.40;;;;;;4955295;28;94744;-81
2023/06/20 03:30:38;;;;;;;77.57;54.85;;;21.60;74.20;;;;;;4962524;28;95917;-82
2023/06/20 03:33:04;;;;;;;76.93;55.08;;;21.70;74.60;;;;;;4964656;28;95427;-81
2023/06/20 03:35:29;;;;;;;75.63;54.40;;;21.70;73.70;;;;;;4963059;28;99266;-81
2023/06/20 03:37:55;;;;;;;77.32;54.95;;;21.70;74.00;;;;;;4964440;28;96830;-81
2023/06/20 03:40:21;;;;;;;77.13;54.80;;;21.60;74.00;;;;;;4964842;28;94872;-81
2023/06/20 03:42:46;;;;;;;77.68;54.80;;;21.60;74.30;;;;;;4960142;28;94936;-82
2023/06/20 03:45:12;;;;;;;76.82;54.95;;;21.60;74.10;;;;;;4964603;28;99051;-81
2023/06/20 03:47:38;;;;;;;75.80;54.47;;;21.60;74.60;;;;;;4962305;28;100425;-81
2023/06/20 03:50:04;;;;;;;77.30;54.85;;;21.60;75.30;;;;;;4963342;28;94515;-81
2023/06/20 03:52:29;;;;;;;76.55;54.50;;;21.60;74.10;;;;;;4961962;28;96460;-81
2023/06/20 03:54:55;;;;;;;77.00;54.58;;;21.60;74.10;;;;;;4962399;28;98517;-81
2023/06/20 03:57:20;;;;;;;76.30;54.58;;;21.60;74.30;;;;;;4959026;28;98059;-81
2023/06/20 03:59:46;;;;;;;76.70;54.70;;;21.60;74.10;;;;;;4967452;28;95261;-81
2023/06/20 04:02:12;;;;;;;77.38;54.67;;;21.60;74.30;;;;;;4966163;28;94281;-81
2023/06/20 04:04:38;;;;;;;76.72;54.72;;;21.60;74.30;;;;;;4967583;28;95841;-81
2023/06/20 04:07:04;;;;;;;76.25;54.55;;;21.60;74.60;;;;;;4961380;28;98402;-82
2023/06/20 04:09:30;;;;;;;76.43;54.88;;;21.60;73.60;;;;;;4966144;28;95855;-81
2023/06/20 04:11:55;;;;;;;76.05;54.60;;;21.60;73.40;;;;;;4962431;28;94623;-82
2023/06/20 04:14:21;;;;;;;77.03;54.92;;;21.60;74.60;;;;;;4964942;28;98191;-81
2023/06/20 04:16:49;;;;;;;76.32;54.75;;;21.60;74.10;;;;;;4955338;28;94953;-81
2023/06/20 04:19:15;;;;;;;75.38;54.20;;;21.60;75.50;;;;;;4967091;28;95565;-82
2023/06/20 04:21:41;;;;;;;77.32;54.83;;;21.60;74.90;;;;;;4963099;28;96124;-82
2023/06/20 04:24:06;;;;;;;77.13;54.30;;;21.60;72.80;;;;;;4961317;28;95338;-81
2023/06/20 04:26:32;;;;;;;76.75;54.70;;;21.60;75.30;;;;;;4967286;28;94107;-81
2023/06/20 04:28:58;;;;;;;77.13;54.83;;;21.60;73.70;;;;;;4963191;28;94768;-81
2023/06/20 04:31:24;;;;;;;77.40;54.72;;;21.60;73.80;;;;;;4959424;28;94740;-81
2023/06/20 04:33:50;;;;;;;76.55;54.78;;;21.60;73.20;;;;;;4959749;28;96287;-81
2023/06/20 04:36:15;;;;;;;77.35;55.03;;;21.70;72.70;;;;;;4961919;28;99256;-82
2023/06/20 04:38:42;;;;;;;76.65;54.78;;;21.70;73.50;;;;;;4958684;28;94990;-81
2023/06/20 04:41:08;;;;;;;76.72;54.85;;;21.70;74.40;;;;;;4964237;28;94921;-82
2023/06/20 04:43:35;;;;;;;76.30;54.22;;;21.70;74.00;;;;;;4962640;28;97766;-81
2023/06/20 04:46:01;;;;;;;76.60;54.42;;;21.80;73.70;;;;;;4960717;28;97922;-81
2023/06/20 04:48:35;;;;;;;76.30;54.28;;;21.80;73.70;;;;;;4961283;28;96290;-81
2023/06/20 04:51:01;;;;;;;76.18;54.53;;;21.80;73.70;;;;;;4963091;28;99480;-81
2023/06/20 04:53:27;;;;;;;76.68;54.88;;;21.80;74.40;;;;;;4963941;28;98339;-81
2023/06/20 04:55:54;;;;;;;76.65;54.50;;;21.90;74.70;;;;;;4964991;28;97931;-82
2023/06/20 04:58:20;;;;;;;77.13;54.88;;;21.90;74.10;;;;;;4966185;28;95568;-81
2023/06/20 05:00:45;;;;;;;77.15;54.97;;;22.00;73.10;;;;;;4964501;28;94948;-81
2023/06/20 05:03:11;;;;;;;77.03;54.88;;;22.00;73.60;;;;;;4969485;28;97963;-82
2023/06/20 05:05:36;;;;;;;78.20;55.33;;;22.00;73.90;;;;;;4963092;28;95305;-81
2023/06/20 05:08:02;;;;;;;77.03;55.05;;;22.10;73.20;;;;;;4965602;28;94779;-81
2023/06/20 05:10:28;;;;;;;77.32;54.83;;;22.10;74.30;;;;;;4959418;28;94629;-81
2023/06/20 05:12:54;;;;;;;77.78;54.92;;;22.20;73.50;;;;;;4960244;28;97318;-82
2023/06/20 05:15:23;;;;;;;78.97;55.28;;;22.20;73.30;;;;;;4962120;28;94742;-82
2023/06/20 05:17:53;;;;;;;80.03;55.13;;;22.20;73.60;;;;;;4963870;28;94773;-82
2023/06/20 05:20:19;;;;;;;79.88;55.47;;;22.20;72.70;;;;;;4963783;28;94588;-82
2023/06/20 05:22:45;;;;;;;79.50;55.38;;;22.20;73.00;;;;;;4957214;28;96125;-81
2023/06/20 05:25:11;;;;;;;78.70;55.45;;;22.30;74.00;;;;;;4972948;28;98865;-82
2023/06/20 05:27:37;;;;;;;78.72;55.45;;;22.30;73.50;;;;;;4958538;28;94342;-81
2023/06/20 05:30:04;;;;;;;82.22;55.53;;;22.30;73.30;;;;;;4965784;28;94881;-83
2023/06/20 05:32:29;;;;;;;82.47;56.33;;;22.40;74.00;;;;;;4960699;28;98951;-82
2023/06/20 05:34:55;;;;;;;85.07;56.28;;;22.50;74.30;;;;;;4976317;28;98940;-83
2023/06/20 05:37:20;;;;;;;84.45;56.80;;;22.50;75.30;;;;;;4959461;28;95185;-84
2023/06/20 05:39:46;;;;;;;82.75;56.47;;;22.60;74.50;;;;;;4967642;28;93784;-83
2023/06/20 05:42:12;;;;;;;83.13;56.95;;;22.60;74.30;;;;;;4957677;28;95074;-82
2023/06/20 05:44:37;;;;;;;82.82;56.55;;;22.70;75.30;;;;;;4963367;28;94588;-81
2023/06/20 05:47:06;;;;;;;86.55;56.55;;;22.70;74.90;;;;;;4973125;28;95672;-82
2023/06/20 05:49:32;;;;;;;81.90;56.17;;;22.70;75.00;;;;;;4965468;28;94460;-82
2023/06/20 05:51:58;;;;;;;82.40;55.88;;;22.70;74.50;;;;;;4963589;28;98003;-81
2023/06/20 05:54:24;;;;;;;85.05;56.55;;;22.80;73.90;;;;;;4967392;28;94997;-81
2023/06/20 05:56:51;;;;;;;82.50;56.60;;;22.80;74.40;;;;;;4967823;28;94836;-81
2023/06/20 05:59:17;;;;;;;80.35;56.25;;;22.90;74.20;;;;;;4964960;28;94563;-81
2023/06/20 06:01:45;;;;;;;82.55;56.47;;;22.90;74.70;;;;;;4963303;28;98926;-81
2023/06/20 06:04:11;;;;;;;80.43;55.67;;;22.90;74.10;;;;;;4966106;28;98726;-81
2023/06/20 06:06:37;;;;;;;80.32;55.78;;;23.00;73.20;;;;;;4964056;28;94785;-81
2023/06/20 06:09:03;;;;;;;79.60;55.80;;;23.00;73.50;;;;;;4964180;28;95120;-81
2023/06/20 06:11:29;;;;;;;80.18;56.10;;;23.00;72.60;;;;;;4965316;28;99410;-81
2023/06/20 06:13:55;;;;;;;79.78;56.42;;;23.00;72.60;;;;;;4961196;28;99424;-81
2023/06/20 06:16:21;;;;;;;80.15;55.72;;;23.10;73.60;;;;;;4961240;28;94523;-81
2023/06/20 06:18:47;;;;;;;81.22;56.53;;;23.10;72.30;;;;;;4965122;28;95810;-81
2023/06/20 06:21:12;;;;;;;81.70;55.92;;;23.10;72.80;;;;;;4963017;28;94948;-81
2023/06/20 06:23:38;;;;;;;80.75;55.83;;;23.10;72.90;;;;;;4968847;28;95506;-80
2023/06/20 06:26:04;;;;;;;79.07;55.42;;;23.20;72.70;;;;;;4965183;28;94584;-81
2023/06/20 06:28:30;;;;;;;82.20;55.80;;;23.20;72.60;;;;;;4962327;28;94904;-81
2023/06/20 06:30:59;;;;;;;81.60;56.17;;;23.20;71.60;;;;;;4967733;28;95267;-81
2023/06/20 06:33:25;;;;;;;79.18;55.72;;;23.20;72.50;;;;;;4966675;28;95567;-81
2023/06/20 06:35:51;;;;;;;80.68;55.47;;;23.20;72.60;;;;;;4967085;28;95458;-81
2023/06/20 06:38:17;;;;;;;80.65;55.97;;;23.20;71.70;;;;;;4966085;28;95065;-81
2023/06/20 06:40:45;;;;;;;83.22;56.08;;;23.30;72.10;;;;;;4960693;28;94868;-81
2023/06/20 06:43:10;;;;;;;80.03;55.95;;;23.30;71.40;;;;;;4965821;28;97701;-81
2023/06/20 06:45:37;;;;;;;82.25;55.85;;;23.30;71.20;;;;;;4984318;28;96108;-81
2023/06/20 06:48:03;;;;;;;78.93;55.55;;;23.30;71.80;;;;;;4966506;28;94526;-81
2023/06/20 06:50:28;;;;;;;81.13;56.10;;;23.30;71.20;;;;;;4962037;28;98153;-80
2023/06/20 06:52:54;;;;;;;80.00;55.88;;;23.30;71.70;;;;;;4971529;28;98025;-81
2023/06/20 06:55:20;;;;;;;81.30;55.85;;;23.40;71.80;;;;;;4960261;28;94984;-82
2023/06/20 06:57:45;;;;;;;80.18;55.97;;;23.40;71.30;;;;;;4953868;28;94779;-81
2023/06/20 07:00:14;;;;;;;81.78;55.92;;;23.40;72.00;;;;;;4956939;28;99260;-81
2023/06/20 07:02:44;;;;;;;79.90;55.65;;;23.40;71.40;;;;;;4964971;28;96173;-81
2023/06/20 07:05:11;;;;;;;78.80;56.00;;;23.50;71.10;;;;;;4958037;28;94932;-82
2023/06/20 07:07:36;;;;;;;81.03;55.83;;;23.50;72.10;;;;;;4969306;28;94924;-81
2023/06/20 07:10:02;;;;;;;78.97;56.05;;;23.50;71.70;;;;;;4958746;28;94748;-81
2023/06/20 07:12:28;;;;;;;81.68;56.38;;;23.60;71.90;;;;;;4969220;28;98391;-82
2023/06/20 07:14:56;;;;;;;81.35;55.80;;;23.60;71.10;;;;;;4964266;28;95426;-81
2023/06/20 07:17:26;;;;;;;78.28;55.33;;;23.60;71.30;;;;;;4962756;28;95289;-81
2023/06/20 07:19:52;;;;;;;80.10;55.65;;;23.60;70.70;;;;;;4962162;28;95632;-81
2023/06/20 07:22:19;;;;;;;79.85;55.33;;;23.70;71.10;;;;;;4962741;28;98151;-81
2023/06/20 07:24:45;;;;;;;80.47;55.67;;;23.70;70.20;;;;;;4962567;28;96116;-82
2023/06/20 07:27:11;;;;;;;79.65;55.42;;;23.70;71.00;;;;;;4963981;28;94256;-81
2023/06/20 07:29:36;;;;;;;80.65;55.90;;;23.80;70.50;;;;;;4966928;28;94575;-81
2023/06/20 07:32:02;;;;;;;80.47;55.83;;;23.80;71.00;;;;;;4965345;28;94871;-82
2023/06/20 07:34:28;;;;;;;81.82;56.53;;;23.80;70.90;;;;;;4962832;28;95258;-80
2023/06/20 07:36:54;;;;;;;80.00;56.05;;;23.90;70.60;;;;;;4961504;28;94868;-81
2023/06/20 07:39:20;;;;;;;80.50;56.15;;;23.90;71.00;;;;;;4964836;28;98043;-81
2023/06/20 07:41:45;;;;;;;80.88;56.15;;;23.90;70.90;;;;;;4964664;28;101804;-81
2023/06/20 07:44:11;;;;;;;81.13;56.00;;;24.00;70.80;;;;;;4960014;28;94874;-81
2023/06/20 07:46:39;;;;;;;79.88;55.72;;;24.00;70.40;;;;;;4960420;28;94645;-81
2023/06/20 07:49:06;;;;;;;81.00;56.70;;;24.10;70.50;;;;;;4961736;28;99008;-81
2023/06/20 07:51:33;;;;;;;80.55;56.22;;;24.10;70.50;;;;;;4964555;28;98931;-81
2023/06/20 07:53:59;;;;;;;83.32;56.38;;;24.10;70.60;;;;;;4964041;28;94897;-82
2023/06/20 07:56:25;;;;;;;80.38;55.75;;;24.10;70.50;;;;;;4963498;28;94967;-82
2023/06/20 07:58:51;;;;;;;79.80;55.78;;;24.20;70.30;;;;;;4963162;28;95474;-81
2023/06/20 08:01:18;;;;;;;80.13;56.42;;;24.10;69.50;;;;;;4958943;28;95669;-81
2023/06/20 08:03:43;;;;;;;81.70;56.42;;;24.20;70.30;;;;;;4959656;28;94805;-83
2023/06/20 08:06:10;;;;;;;80.00;56.47;;;24.20;70.30;;;;;;4963865;28;94429;-81
2023/06/20 08:08:36;;;;;;;79.80;56.10;;;24.30;70.40;;;;;;4970944;28;98336;-81
2023/06/20 08:11:02;;;;;;;81.07;55.95;;;24.30;70.40;;;;;;4963288;28;96736;-81
2023/06/20 08:13:28;;;;;;;80.93;56.53;;;24.30;70.30;;;;;;4965234;28;96235;-81
2023/06/20 08:15:53;;;;;;;81.93;56.03;;;24.30;70.30;;;;;;4964054;28;95038;-82
2023/06/20 08:18:19;;;;;;;80.28;56.05;;;24.30;69.40;;;;;;4966262;28;95001;-82
2023/06/20 08:20:45;;;;;;;79.15;55.58;;;24.40;69.60;;;;;;4956644;28;94359;-81
2023/06/20 08:23:11;;;;;;;81.05;55.78;;;24.40;69.20;;;;;;4964634;28;95267;-82
2023/06/20 08:25:36;;;;;;;80.40;56.28;;;24.40;69.60;;;;;;4963417;28;94351;-82
2023/06/20 08:28:02;;;;;;;81.30;55.63;;;24.50;69.70;;;;;;4963972;28;94892;-81
2023/06/20 08:30:28;;;;;;;79.97;55.70;;;24.50;69.10;;;;;;4969046;28;94523;-81
2023/06/20 08:32:53;;;;;;;79.32;55.53;;;24.50;69.30;;;;;;4967913;28;95115;-81
2023/06/20 08:35:19;;;;;;;80.05;56.15;;;24.50;69.00;;;;;;4966294;28;94643;-82
2023/06/20 08:37:44;;;;;;;80.07;56.15;;;24.60;69.10;;;;;;4964593;28;95558;-81
2023/06/20 08:40:12;;;;;;;79.60;55.78;;;24.60;69.20;;;;;;4962633;28;99877;-81
2023/06/20 08:42:40;;;;;;;80.07;56.00;;;24.60;69.10;;;;;;4962791;28;95452;-81
2023/06/20 08:45:07;;;;;;;81.05;56.42;;;24.70;69.00;;;;;;4963953;28;94558;-81
2023/06/20 08:47:33;;;;;;;80.10;55.88;;;24.70;69.00;;;;;;4964427;28;98654;-81
2023/06/20 08:49:58;;;;;;;79.32;55.85;;;24.70;70.00;;;;;;4968854;28;94387;-82
2023/06/20 08:52:29;;;;;;;79.47;56.22;;;24.70;68.70;;;;;;4965109;28;94946;-81
2023/06/20 08:54:55;;;;;;;80.87;56.03;;;24.70;69.00;;;;;;4964520;28;96145;-81
2023/06/20 08:57:21;;;;;;;79.35;55.60;;;24.70;69.00;;;;;;4962735;28;94890;-82
2023/06/20 08:59:46;;;;;;;82.40;55.88;;;24.70;68.40;;;;;;4966226;28;95149;-81
2023/06/20 09:02:13;;;;;;;80.45;56.00;;;24.80;68.40;;;;;;4960952;28;95664;-82
2023/06/20 09:04:38;;;;;;;80.53;56.05;;;24.80;68.10;;;;;;4976268;28;94674;-82
2023/06/20 09:07:34;;;;;;;80.95;56.28;;;25.00;68.00;;;;;;4971009;28;94884;-81
2023/06/20 09:10:01;;;;;;;78.85;55.47;;;25.00;67.70;;;;;;4966390;28;95271;-83
2023/06/20 09:12:26;;;;;;;81.50;55.92;;;25.00;67.20;;;;;;4970773;28;93995;-81
2023/06/20 09:14:52;;;;;;;81.70;56.10;;;25.10;66.60;;;;;;4978504;28;94900;-83
2023/06/20 09:17:21;;;;;;;79.93;56.35;;;25.20;66.50;;;;;;4965948;28;95255;-81
2023/06/20 09:19:47;;;;;;;79.80;55.45;;;25.20;66.20;;;;;;4973275;28;94492;-81
2023/06/20 09:22:17;;;;;;;79.20;55.40;;;25.20;66.10;;;;;;4966992;28;95709;-81
2023/06/20 09:24:44;;;;;;;79.45;55.85;;;25.20;66.00;;;;;;4973100;28;93890;-82
2023/06/20 09:27:11;;;;;;;79.63;55.97;;;25.20;65.80;;;;;;4959139;28;96294;-82
2023/06/20 09:30:00;;;;;;;80.72;56.22;;;25.30;65.90;;;;;;4967419;28;98611;-82
2023/06/20 09:32:25;;;;;;;80.25;55.92;;;25.40;65.60;;;;;;4965204;28;95419;-81
2023/06/20 09:34:51;;;;;;;80.18;56.17;;;25.40;65.60;;;;;;4967973;28;94822;-81
2023/06/20 09:37:17;;;;;;;80.28;56.03;;;25.40;65.50;;;;;;4967601;28;96205;-82
2023/06/20 09:39:43;;;;;;;79.75;56.15;;;25.50;65.20;;;;;;4972901;28;98135;-81
2023/06/20 09:42:13;;;;;;;81.85;56.13;;;25.60;64.80;;;;;;4966758;28;94683;-82
2023/06/20 09:44:42;;;;;;;80.63;56.17;;;25.60;64.40;;;;;;4967054;28;94326;-81
2023/06/20 09:47:08;;;;;;;80.80;55.95;;;25.70;64.00;;;;;;4964140;28;97410;-81
2023/06/20 09:49:35;;;;;;;80.57;55.88;;;25.70;64.00;;;;;;4960628;28;95325;-82
2023/06/20 09:52:06;;;;;;;80.82;56.33;;;25.80;64.20;;;;;;4963558;28;95637;-81
2023/06/20 09:54:34;;;;;;;80.43;55.88;;;25.80;64.00;;;;;;4962635;28;95418;-82
2023/06/20 09:57:04;;;;;;;82.07;56.10;;;25.80;63.90;;;;;;4961858;28;95817;-82
2023/06/20 09:59:32;;;;;;;80.07;55.97;;;25.80;63.90;;;;;;4967413;28;94763;-82
2023/06/20 10:01:59;;;;;;;81.82;55.95;;;25.80;63.60;;;;;;4963596;28;95871;-81
2023/06/20 10:04:26;;;;;;;79.68;55.75;;;25.80;63.70;;;;;;4964781;28;94685;-81
2023/06/20 10:06:55;;;;;;;80.25;56.22;;;25.90;63.50;;;;;;4960300;28;98928;-82
2023/06/20 10:09:21;;;;;;;82.82;56.40;;;25.90;63.50;;;;;;4969151;28;98127;-82
2023/06/20 10:11:48;;;;;;;81.93;56.40;;;25.90;63.20;;;;;;4970384;28;95014;-82
2023/06/20 10:14:14;;;;;;;80.68;56.53;;;26.00;63.20;;;;;;4966164;28;94499;-82
2023/06/20 10:16:51;;;;;;;82.28;56.33;;;26.00;62.90;;;;;;4967830;28;100165;-82
2023/06/20 10:19:18;;;;;;;80.30;55.83;;;26.10;62.70;;;;;;4968707;28;95188;-82
2023/06/20 10:22:00;;;;;;;82.78;56.50;;;26.10;62.50;;;;;;4966502;28;94380;-82
2023/06/20 10:24:30;;;;;;;82.30;56.38;;;26.10;62.50;;;;;;4969052;28;95034;-82
2023/06/20 10:27:00;;;;;;;80.78;56.13;;;26.20;62.30;;;;;;4977381;28;98439;-83
2023/06/20 10:29:26;;;;;;;81.32;56.40;;;26.20;62.10;;;;;;4967553;28;96823;-82
2023/06/20 10:32:05;;;;;;;80.35;56.03;;;26.30;62.00;;;;;;4967779;28;94390;-82
2023/06/20 10:34:39;;;;;;;81.20;56.63;;;26.30;61.80;;;;;;4965097;28;94002;-82
2023/06/20 10:37:13;;;;;;;81.20;56.38;;;26.40;61.60;;;;;;4966520;28;94516;-81
2023/06/20 10:39:51;;;;;;;82.40;56.33;;;26.40;61.50;;;;;;4969479;28;97740;-82
2023/06/20 10:42:37;;;;;;;81.55;55.80;;;26.40;61.50;;;;;;4960396;28;96502;-82
2023/06/20 10:45:26;;;;;;;81.45;56.63;;;26.40;61.50;;;;;;4963963;28;94706;-82
2023/06/20 10:47:53;;;;;;;80.35;56.00;;;26.40;61.40;;;;;;4962006;28;95929;-82
2023/06/20 10:50:19;;;;;;;80.43;55.53;;;26.40;61.50;;;;;;4966148;28;94884;-82
2023/06/20 10:52:45;;;;;;;80.93;56.38;;;26.40;61.50;;;;;;4965370;28;94483;-82
2023/06/20 10:55:28;;;;;;;80.90;56.25;;;26.40;61.40;;;;;;4968766;28;94751;-82
2023/06/20 10:57:55;;;;;;;82.43;56.20;;;26.40;61.20;;;;;;4964207;28;95374;-82
2023/06/20 11:00:22;;;;;;;80.57;56.35;;;26.50;61.10;;;;;;4969683;28;96471;-82
2023/06/20 11:02:50;;;;;;;81.13;56.45;;;26.60;60.70;;;;;;4966875;28;94755;-82
2023/06/20 11:05:17;;;;;;;81.80;56.53;;;26.70;60.40;;;;;;4970368;28;94882;-82
2023/06/20 11:08:11;;;;;;;82.00;56.60;;;26.80;60.10;;;;;;4964974;28;96504;-83
2023/06/20 11:10:38;;;;;;;82.10;56.58;;;26.90;60.40;;;;;;4946178;28;96291;-82
2023/06/20 11:13:05;;;;;;;80.82;56.28;;;26.90;59.80;;;;;;4967986;28;94966;-82
2023/06/20 11:15:33;;;;;;;82.28;56.53;;;26.90;59.70;;;;;;4960135;28;94422;-82
2023/06/20 11:18:16;;;;;;;82.53;56.60;;;27.00;59.70;;;;;;4962959;28;95390;-82
2023/06/20 11:20:43;;;;;;;82.75;56.70;;;27.00;59.40;;;;;;4967580;28;99292;-82
2023/06/20 11:23:12;;;;;;;81.63;56.35;;;27.00;59.30;;;;;;4968829;28;95413;-82
2023/06/20 11:25:39;;;;;;;81.50;56.83;;;27.10;59.20;;;;;;4962918;28;94198;-82
2023/06/20 11:28:07;;;;;;;81.18;56.38;;;27.20;59.10;;;;;;4964039;28;98428;-82
2023/06/20 11:30:35;;;;;;;80.88;56.47;;;27.20;59.00;;;;;;4971459;28;94708;-82
2023/06/20 11:33:05;;;;;;;82.53;56.45;;;27.20;58.90;;;;;;4965529;28;95491;-82
2023/06/20 11:35:44;;;;;;;82.38;56.67;;;27.20;58.70;;;;;;4966517;28;94680;-82
2023/06/20 11:38:11;;;;;;;81.47;56.63;;;27.30;58.70;;;;;;4964300;28;96969;-82
2023/06/20 11:40:38;;;;;;;84.55;56.83;;;27.30;58.80;;;;;;4967492;28;95471;-83
2023/06/20 11:43:05;;;;;;;81.40;56.60;;;27.30;58.50;;;;;;4962752;28;95727;-82
2023/06/20 11:45:32;;;;;;;81.90;56.70;;;27.30;58.50;;;;;;4964361;28;94885;-82
2023/06/20 11:48:13;;;;;;;81.25;56.65;;;27.40;58.70;;;;;;4965065;28;99719;-82
2023/06/20 11:50:41;;;;;;;81.88;57.28;;;27.40;58.30;;;;;;4966317;28;94574;-82
2023/06/20 11:53:17;;;;;;;81.57;56.70;;;27.40;58.20;;;;;;4965000;28;94418;-83
2023/06/20 11:55:54;;;;;;;81.50;56.90;;;27.40;58.20;;;;;;4964026;28;95285;-82
2023/06/20 11:58:20;;;;;;;81.43;56.85;;;27.40;58.20;;;;;;4965393;28;95890;-82
2023/06/20 12:00:57;;;;;;;82.07;56.60;;;27.40;58.20;;;;;;4965311;28;96245;-83
2023/06/20 12:03:22;;;;;;;82.78;56.72;;;27.50;58.20;;;;;;4961516;28;94639;-84
2023/06/20 12:05:48;;;;;;;81.25;56.17;;;27.50;58.30;;;;;;4964048;28;94664;-82
2023/06/20 12:08:14;;;;;;;81.78;56.55;;;27.50;58.10;;;;;;4961680;28;96403;-82
2023/06/20 12:10:59;;;;;;;82.88;56.83;;;27.50;57.80;;;;;;4963124;28;95518;-82
2023/06/20 12:13:24;;;;;;;80.90;56.22;;;27.50;58.00;;;;;;4956613;28;94355;-82
2023/06/20 12:15:51;;;;;;;81.43;56.53;;;27.50;57.80;;;;;;4962743;28;95284;-82
2023/06/20 12:18:17;;;;;;;83.07;56.60;;;27.50;57.90;;;;;;4963352;28;95201;-82
2023/06/20 12:20:44;;;;;;;81.97;56.33;;;27.50;58.10;;;;;;4966278;28;94727;-82
2023/06/20 12:23:10;;;;;;;84.00;56.90;;;27.50;58.20;;;;;;4960936;28;95360;-82
2023/06/20 12:25:35;;;;;;;82.57;56.47;;;27.50;57.80;;;;;;4965076;28;96695;-82
2023/06/20 12:28:01;;;;;;;82.93;56.65;;;27.50;57.10;;;;;;4971856;28;94930;-82
2023/06/20 12:30:27;;;;;;;81.35;56.42;;;27.40;56.70;;;;;;4972069;28;94922;-82
2023/06/20 12:32:55;;;;;;;81.90;56.33;;;27.20;55.80;;;;;;4967509;28;94418;-81